Terminal Aerodrome Forecast
Issued by NWS

Home | Current Version | Previous Version | Text Only | Print | Product List | Glossary On
Versions: 1 2 3 4 5 6 7 8 9 10 11 12 13 14 15 16 17 18 19 20 21
000
FTUS45 KTFX 251139 CCA
TAFBZN
TAF COR
KBZN 251139Z 2512/2612 29009KT 3SM -SN OVC030
     FM251230 29009KT P6SM VCSH SCT020 BKN045
     FM251500 27009KT P6SM BKN070
     FM260300 21007KT P6SM SCT100=

USA.gov is the U.S. government's official web portal to all federal, state and local government web resources and services.